Time,TemperatureF,DewpointF,PressureIn,WindDirection,WindDirectionDegrees,WindSpeedMPH,WindSpeedGustMPH,Humidity,HourlyPrecipIn,Conditions,Clouds,dailyrainin,SoftwareType,DateUTC
2015-04-25 00:00:00,51.1,37.7,29.84,ENE,69,5.0,5.0,60,0.00,,,0.00,Wunderground v.1.15,2015-04-25 04:00:00,
2015-04-25 00:10:00,50.7,37.7,29.84,ESE,115,4.0,8.0,61,0.00,,,0.00,Wunderground v.1.15,2015-04-25 04:10:00,
2015-04-25 00:15:00,50.5,38.8,29.84,ESE,119,4.0,8.0,64,0.00,,,0.00,Wunderground v.1.15,2015-04-25 04:15:00,
2015-04-25 00:25:00,50.2,38.1,29.83,ESE,111,5.0,9.0,63,0.00,,,0.00,Wunderground v.1.15,2015-04-25 04:25:00,
2015-04-25 00:35:00,50.3,36.9,29.83,ESE,103,4.0,6.0,60,0.00,,,0.00,Wunderground v.1.15,2015-04-25 04:35:00,
2015-04-25 00:40:00,50.3,36.5,29.83,East,94,4.0,4.0,59,0.00,,,0.00,Wunderground v.1.15,2015-04-25 04:40:00,
2015-04-25 00:50:00,50.5,37.1,29.83,ENE,64,3.0,8.0,60,0.00,,,0.00,Wunderground v.1.15,2015-04-25 04:50:00,
2015-04-25 01:00:00,50.6,37.6,29.84,East,95,3.0,3.0,61,0.00,,,0.00,Wunderground v.1.15,2015-04-25 05:00:00,
2015-04-25 01:10:00,50.6,36.4,29.84,East,86,3.0,5.0,58,0.00,,,0.00,Wunderground v.1.15,2015-04-25 05:10:00,
2015-04-25 01:15:00,50.6,37.2,29.83,ENE,78,4.0,5.0,60,0.00,,,0.00,Wunderground v.1.15,2015-04-25 05:15:00,
2015-04-25 01:20:00,50.6,36.8,29.83,East,84,5.0,5.0,59,0.00,,,0.00,Wunderground v.1.15,2015-04-25 05:20:00,
2015-04-25 01:30:00,50.7,37.7,29.82,East,82,4.0,5.0,61,0.00,,,0.00,Wunderground v.1.15,2015-04-25 05:30:00,
2015-04-25 01:35:00,50.7,37.3,29.81,East,95,4.0,9.0,60,0.00,,,0.00,Wunderground v.1.15,2015-04-25 05:35:00,
2015-04-25 01:45:00,50.6,36.8,29.82,ESE,116,4.0,9.0,59,0.00,,,0.00,Wunderground v.1.15,2015-04-25 05:45:00,
2015-04-25 01:55:00,50.6,36.4,29.82,East,87,5.0,8.0,58,0.00,,,0.00,Wunderground v.1.15,2015-04-25 05:55:00,
2015-04-25 02:05:00,50.7,36.5,29.82,East,83,4.0,9.0,58,0.00,,,0.00,Wunderground v.1.15,2015-04-25 06:05:00,
2015-04-25 02:10:00,50.7,37.3,29.82,ENE,59,3.0,9.0,60,0.00,,,0.00,Wunderground v.1.15,2015-04-25 06:10:00,
2015-04-25 02:20:00,50.6,37.6,29.82,ENE,76,4.0,4.0,61,0.00,,,0.00,Wunderground v.1.15,2015-04-25 06:20:00,
2015-04-25 02:25:00,50.6,37.2,29.82,East,86,4.0,8.0,60,0.00,,,0.00,Wunderground v.1.15,2015-04-25 06:25:00,
2015-04-25 02:35:00,50.5,37.1,29.82,East,90,3.0,7.0,60,0.00,,,0.00,Wunderground v.1.15,2015-04-25 06:35:00,
2015-04-25 02:45:00,50.4,37.4,29.82,East,80,3.0,7.0,61,0.00,,,0.00,Wunderground v.1.15,2015-04-25 06:45:00,
2015-04-25 02:50:00,50.4,37.0,29.82,ENE,69,4.0,4.0,60,0.00,,,0.00,Wunderground v.1.15,2015-04-25 06:50:00,
2015-04-25 03:00:00,50.4,37.4,29.82,ENE,74,4.0,4.0,61,0.00,,,0.00,Wunderground v.1.15,2015-04-25 07:00:00,
2015-04-25 03:05:00,50.4,37.0,29.81,East,79,3.0,7.0,60,0.00,,,0.00,Wunderground v.1.15,2015-04-25 07:05:00,
2015-04-25 03:15:00,50.3,36.9,29.81,East,96,3.0,4.0,60,0.00,,,0.00,Wunderground v.1.15,2015-04-25 07:15:00,
2015-04-25 03:20:00,50.2,37.3,29.81,ENE,71,3.0,7.0,61,0.00,,,0.00,Wunderground v.1.15,2015-04-25 07:20:00,
2015-04-25 03:30:00,50.2,36.8,29.80,East,98,4.0,4.0,60,0.00,,,0.00,Wunderground v.1.15,2015-04-25 07:30:00,
2015-04-25 03:40:00,50.1,37.2,29.81,East,97,3.0,3.0,61,0.00,,,0.00,Wunderground v.1.15,2015-04-25 07:40:00,
2015-04-25 03:50:00,50.0,37.1,29.80,East,89,4.0,4.0,61,0.00,,,0.00,Wunderground v.1.15,2015-04-25 07:50:00,
2015-04-25 03:55:00,49.9,36.6,29.80,SE,127,5.0,5.0,60,0.00,,,0.00,Wunderground v.1.15,2015-04-25 07:55:00,
2015-04-25 04:05:00,49.9,36.1,29.79,East,98,5.0,6.0,59,0.00,,,0.00,Wunderground v.1.15,2015-04-25 08:05:00,
2015-04-25 04:10:00,49.9,36.6,29.79,SE,130,5.0,8.0,60,0.00,,,0.00,Wunderground v.1.15,2015-04-25 08:10:00,
2015-04-25 04:20:00,49.8,36.9,29.79,ESE,115,6.0,8.0,61,0.00,,,0.00,Wunderground v.1.15,2015-04-25 08:20:00,
2015-04-25 04:30:00,49.7,36.8,29.78,SE,136,6.0,6.0,61,0.00,,,0.00,Wunderground v.1.15,2015-04-25 08:30:00,
2015-04-25 04:35:00,49.7,36.4,29.78,SE,136,6.0,10.0,60,0.00,,,0.00,Wunderground v.1.15,2015-04-25 08:35:00,
2015-04-25 04:45:00,49.8,36.9,29.78,ESE,113,6.0,7.0,61,0.00,,,0.00,Wunderground v.1.15,2015-04-25 08:45:00,
2015-04-25 04:50:00,49.8,36.0,29.78,ESE,107,6.0,6.0,59,0.00,,,0.00,Wunderground v.1.15,2015-04-25 08:50:00,
2015-04-25 05:05:00,49.8,36.0,29.79,SE,134,7.0,9.0,59,0.00,,,0.00,Wunderground v.1.15,2015-04-25 09:05:00,
2015-04-25 05:10:00,49.8,36.0,29.78,ESE,113,6.0,6.0,59,0.00,,,0.00,Wunderground v.1.15,2015-04-25 09:10:00,
2015-04-25 05:20:00,49.7,36.4,29.77,East,98,5.0,12.0,60,0.00,,,0.00,Wunderground v.1.15,2015-04-25 09:20:00,
2015-04-25 05:25:00,49.7,36.4,29.77,ESE,106,5.0,12.0,60,0.00,,,0.00,Wunderground v.1.15,2015-04-25 09:25:00,
2015-04-25 05:35:00,49.6,36.3,29.77,ENE,71,5.0,9.0,60,0.00,,,0.00,Wunderground v.1.15,2015-04-25 09:35:00,
2015-04-25 05:45:00,49.5,35.8,29.76,ENE,71,7.0,9.0,59,0.00,,,0.00,Wunderground v.1.15,2015-04-25 09:45:00,
2015-04-25 05:55:00,49.6,35.4,29.76,ENE,76,5.0,10.0,58,0.00,,,0.00,Wunderground v.1.15,2015-04-25 09:55:00,
2015-04-25 06:00:00,49.7,35.1,29.76,ESE,120,6.0,6.0,57,0.00,,,0.00,Wunderground v.1.15,2015-04-25 10:00:00,
2015-04-25 06:10:00,49.7,35.9,29.75,ENE,69,5.0,11.0,59,0.00,,,0.00,Wunderground v.1.15,2015-04-25 10:10:00,
2015-04-25 06:20:00,49.7,35.1,29.74,East,98,8.0,10.0,57,0.00,,,0.00,Wunderground v.1.15,2015-04-25 10:20:00,
2015-04-25 06:30:00,49.6,34.5,29.74,ESE,103,6.0,6.0,56,0.00,,,0.00,Wunderground v.1.15,2015-04-25 10:30:00,
2015-04-25 06:40:00,49.6,34.5,29.75,East,82,3.0,3.0,56,0.00,,,0.00,Wunderground v.1.15,2015-04-25 10:40:00,
2015-04-25 06:50:00,49.7,34.6,29.75,East,96,4.0,4.0,56,0.00,,,0.00,Wunderground v.1.15,2015-04-25 10:50:00,
2015-04-25 06:55:00,49.6,34.5,29.75,SE,131,4.0,8.0,56,0.00,,,0.00,Wunderground v.1.15,2015-04-25 10:55:00,
2015-04-25 07:05:00,49.7,34.6,29.75,SE,130,5.0,7.0,56,0.00,,,0.00,Wunderground v.1.15,2015-04-25 11:05:00,
2015-04-25 07:15:00,49.9,33.9,29.73,ESE,121,6.0,8.0,54,0.00,,,0.00,Wunderground v.1.15,2015-04-25 11:15:00,
2015-04-25 07:20:00,49.9,33.9,29.73,ESE,114,6.0,11.0,54,0.00,,,0.00,Wunderground v.1.15,2015-04-25 11:20:00,
2015-04-25 07:30:00,50.0,34.0,29.73,ESE,117,6.0,7.0,54,0.00,,,0.00,Wunderground v.1.15,2015-04-25 11:30:00,
2015-04-25 07:40:00,50.1,34.1,29.73,SE,142,7.0,7.0,54,0.00,,,0.00,Wunderground v.1.15,2015-04-25 11:40:00,
2015-04-25 07:45:00,50.0,33.5,29.73,ESE,105,7.0,7.0,53,0.00,,,0.00,Wunderground v.1.15,2015-04-25 11:45:00,
2015-04-25 07:55:00,50.0,33.1,29.72,ESE,116,8.0,11.0,52,0.00,,,0.00,Wunderground v.1.15,2015-04-25 11:55:00,
2015-04-25 08:05:00,50.1,33.6,29.72,ESE,110,10.0,16.0,53,0.00,,,0.00,Wunderground v.1.15,2015-04-25 12:05:00,
2015-04-25 08:10:00,50.1,33.6,29.72,ESE,121,9.0,9.0,53,0.00,,,0.00,Wunderground v.1.15,2015-04-25 12:10:00,
2015-04-25 08:20:00,50.0,34.0,29.72,ESE,115,9.0,9.0,54,0.00,,,0.00,Wunderground v.1.15,2015-04-25 12:20:00,
2015-04-25 08:30:00,50.1,34.5,29.71,East,80,8.0,8.0,55,0.00,,,0.00,Wunderground v.1.15,2015-04-25 12:30:00,
2015-04-25 08:35:00,50.1,34.1,29.71,SE,126,10.0,10.0,54,0.00,,,0.00,Wunderground v.1.15,2015-04-25 12:35:00,
2015-04-25 08:45:00,50.2,35.1,29.71,ESE,113,7.0,9.0,56,0.00,,,0.00,Wunderground v.1.15,2015-04-25 12:45:00,
2015-04-25 08:50:00,50.1,34.1,29.71,ESE,109,8.0,8.0,54,0.00,,,0.00,Wunderground v.1.15,2015-04-25 12:50:00,
2015-04-25 09:00:00,50.1,34.5,29.72,ESE,103,5.0,5.0,55,0.00,,,0.00,Wunderground v.1.15,2015-04-25 13:00:00,
2015-04-25 09:10:00,50.1,34.5,29.71,ESE,113,6.0,15.0,55,0.00,,,0.00,Wunderground v.1.15,2015-04-25 13:10:00,
2015-04-25 09:15:00,50.1,35.0,29.71,East,95,7.0,15.0,56,0.00,,,0.00,Wunderground v.1.15,2015-04-25 13:15:00,
2015-04-25 09:25:00,50.1,35.9,29.70,East,96,7.0,11.0,58,0.00,,,0.00,Wunderground v.1.15,2015-04-25 13:25:00,
2015-04-25 09:35:00,50.0,35.8,29.70,East,91,10.0,15.0,58,0.00,,,0.00,Wunderground v.1.15,2015-04-25 13:35:00,
2015-04-25 09:40:00,50.0,35.8,29.70,ESE,105,8.0,13.0,58,0.00,,,0.00,Wunderground v.1.15,2015-04-25 13:40:00,
2015-04-25 09:50:00,50.1,36.7,29.70,ESE,105,8.0,8.0,60,0.00,,,0.00,Wunderground v.1.15,2015-04-25 13:50:00,
2015-04-25 10:00:00,49.7,35.5,29.69,East,101,9.0,9.0,58,0.00,,,0.00,Wunderground v.1.15,2015-04-25 14:00:00,
2015-04-25 10:05:00,49.6,36.3,29.69,NE,56,10.0,10.0,60,0.00,,,0.00,Wunderground v.1.15,2015-04-25 14:05:00,
2015-04-25 10:15:00,49.3,35.6,29.69,East,96,10.0,15.0,59,0.00,,,0.00,Wunderground v.1.15,2015-04-25 14:15:00,
2015-04-25 10:25:00,49.2,35.9,29.69,ESE,117,10.0,16.0,60,0.00,,,0.00,Wunderground v.1.15,2015-04-25 14:25:00,
2015-04-25 10:30:00,49.0,36.1,29.69,East,90,9.0,14.0,61,0.00,,,0.00,Wunderground v.1.15,2015-04-25 14:30:00,
2015-04-25 10:40:00,48.7,35.4,29.69,East,82,12.0,12.0,60,0.00,,,0.00,Wunderground v.1.15,2015-04-25 14:40:00,
2015-04-25 10:50:00,48.6,35.3,29.68,East,88,11.0,11.0,60,0.00,,,0.00,Wunderground v.1.15,2015-04-25 14:50:00,
2015-04-25 10:55:00,48.6,36.2,29.68,East,96,9.0,15.0,62,0.00,,,0.00,Wunderground v.1.15,2015-04-25 14:55:00,
2015-04-25 11:05:00,48.3,35.5,29.68,East,97,12.0,15.0,61,0.00,,,0.00,Wunderground v.1.15,2015-04-25 15:05:00,
2015-04-25 11:10:00,48.1,34.9,29.68,East,83,11.0,11.0,60,0.00,,,0.00,Wunderground v.1.15,2015-04-25 15:10:00,
2015-04-25 11:20:00,48.0,34.8,29.67,ENE,73,10.0,10.0,60,0.00,,,0.00,Wunderground v.1.15,2015-04-25 15:20:00,
2015-04-25 11:25:00,47.9,34.7,29.66,East,88,10.0,12.0,60,0.00,,,0.00,Wunderground v.1.15,2015-04-25 15:25:00,
2015-04-25 11:35:00,47.6,36.0,29.66,East,86,11.0,18.0,64,0.00,,,0.00,Wunderground v.1.15,2015-04-25 15:35:00,
2015-04-25 11:45:00,46.3,36.7,29.67,ESE,117,11.0,11.0,69,0.00,,,0.01,Wunderground v.1.15,2015-04-25 15:45:00,
2015-04-25 11:55:00,44.9,37.1,29.67,ENE,78,8.0,14.0,74,0.11,,,0.03,Wunderground v.1.15,2015-04-25 15:55:00,
2015-04-25 12:05:00,43.7,37.9,29.67,ENE,61,9.0,17.0,80,0.20,,,0.06,Wunderground v.1.15,2015-04-25 16:05:00,
2015-04-25 12:10:00,43.3,38.2,29.67,NE,54,10.0,17.0,82,0.11,,,0.07,Wunderground v.1.15,2015-04-25 16:10:00,